createdAt,value
2023-03-12T00:01:59.296Z,97479.03
2023-03-12T00:04:26.236Z,97478.31
2023-03-12T00:06:52.609Z,97467.91
2023-03-12T00:09:19.004Z,97473.28
2023-03-12T00:11:45.336Z,97476.66
2023-03-12T00:14:11.698Z,97487.03
2023-03-12T00:16:38.053Z,97482.84
2023-03-12T00:19:04.455Z,97476.88
2023-03-12T00:21:30.976Z,97477.09
2023-03-12T00:23:57.455Z,97466.69
2023-03-12T00:26:23.841Z,97466.69
2023-03-12T00:28:50.408Z,97469.22
2023-03-12T00:31:27.068Z,97476.09
2023-03-12T00:33:54.480Z,97487.28
2023-03-12T00:36:24.212Z,97492.44
2023-03-12T00:38:51.927Z,97487.28
2023-03-12T00:41:19.982Z,97483.91
2023-03-12T00:43:49.789Z,97494.19
2023-03-12T00:46:16.424Z,97494.34
2023-03-12T00:48:42.887Z,97506.31
2023-03-12T00:51:09.504Z,97493.44
2023-03-12T00:53:36.114Z,97502.97
2023-03-12T00:56:03.033Z,97489.97
2023-03-12T00:58:29.558Z,97495.06
2023-03-12T01:00:55.937Z,97486.56
2023-03-12T01:03:22.350Z,97475.41
2023-03-12T01:05:54.060Z,97472.88
2023-03-12T01:08:21.425Z,97470.38
2023-03-12T01:10:47.861Z,97471.22
2023-03-12T01:13:14.239Z,97477.22
2023-03-12T01:15:40.586Z,97487.50
2023-03-12T01:18:07.141Z,97502.97
2023-03-12T01:20:33.545Z,97499.59
2023-03-12T01:23:00.120Z,97504.72
2023-03-12T01:25:26.461Z,97520.06
2023-03-12T01:27:52.848Z,97527.75
2023-03-12T01:30:19.396Z,97532.78
2023-03-12T01:32:45.812Z,97553.41
2023-03-12T01:35:12.239Z,97554.31
2023-03-12T01:37:38.820Z,97550.06
2023-03-12T01:40:05.688Z,97551.78
2023-03-12T01:42:32.261Z,97544.25
2023-03-12T01:45:00.221Z,97528.78
2023-03-12T01:47:27.301Z,97516.69
2023-03-12T01:49:54.321Z,97502.97
2023-03-12T01:52:27.935Z,97491.09
2023-03-12T01:55:03.578Z,97496.44
2023-03-12T01:57:36.745Z,97477.66
2023-03-12T02:00:13.881Z,97483.69
2023-03-12T02:02:40.273Z,97499.19
2023-03-12T02:05:21.436Z,97512.09
2023-03-12T02:07:48.473Z,97506.97
2023-03-12T02:10:15.623Z,97500.84
2023-03-12T02:12:42.207Z,97509.38
2023-03-12T02:15:09.071Z,97517.03
2023-03-12T02:17:35.945Z,97523.13
2023-03-12T02:20:19.985Z,97530.78
2023-03-12T02:22:52.521Z,97522.31
2023-03-12T02:25:19.001Z,97532.59
2023-03-12T02:27:45.363Z,97505.19
2023-03-12T02:30:15.910Z,97485.59
2023-03-12T02:32:42.286Z,97467.78
2023-03-12T02:35:09.226Z,97430.97
2023-03-12T02:37:35.569Z,97395.28
2023-03-12T02:40:22.669Z,97321.13
2023-03-12T02:42:49.077Z,97278.66
2023-03-12T02:45:15.470Z,97252.22
2023-03-12T02:47:42.028Z,97219.84
2023-03-12T02:50:08.961Z,97195.78
2023-03-12T02:52:35.590Z,97191.31
2023-03-12T02:55:02.339Z,97220.94
2023-03-12T02:57:28.745Z,97211.44
2023-03-12T02:59:55.097Z,97190.97
2023-03-12T03:02:21.447Z,97222.78
2023-03-12T03:04:48.039Z,97221.72
2023-03-12T03:07:14.874Z,97198.66
2023-03-12T03:09:41.517Z,97206.53
2023-03-12T03:12:08.002Z,97211.53
2023-03-12T03:14:34.451Z,97189.41
2023-03-12T03:17:01.053Z,97194.53
2023-03-12T03:19:27.419Z,97223.38
2023-03-12T03:21:53.943Z,97221.00
2023-03-12T03:24:20.975Z,97208.34
2023-03-12T03:26:47.345Z,97240.84
2023-03-12T03:29:13.873Z,97271.59
2023-03-12T03:31:40.229Z,97307.50
2023-03-12T03:34:06.776Z,97326.16
2023-03-12T03:36:33.162Z,97327.94
2023-03-12T03:38:59.775Z,97383.66
2023-03-12T03:41:26.858Z,97402.34
2023-03-12T03:43:56.423Z,97425.50
2023-03-12T03:46:22.867Z,97435.78
2023-03-12T03:48:50.870Z,97472.63
2023-03-12T03:51:17.321Z,97459.69
2023-03-12T03:53:43.668Z,97472.63
2023-03-12T03:56:11.721Z,97464.97
2023-03-12T03:58:38.133Z,97477.03
2023-03-12T04:01:04.977Z,97477.94
2023-03-12T04:03:31.425Z,97431.91
2023-03-12T04:05:59.702Z,97372.22
2023-03-12T04:08:26.212Z,97327.78
2023-03-12T04:10:52.655Z,97285.03
2023-03-12T04:13:19.205Z,97264.59
2023-03-12T04:15:47.524Z,97239.84
2023-03-12T04:18:14.205Z,97226.22
2023-03-12T04:20:40.621Z,97209.06
2023-03-12T04:23:07.179Z,97183.53
2023-03-12T04:25:33.529Z,97148.84
2023-03-12T04:27:59.888Z,97116.50
2023-03-12T04:30:26.266Z,97078.19
2023-03-12T04:32:53.269Z,97064.34
2023-03-12T04:35:20.083Z,97053.81
2023-03-12T04:37:46.504Z,97038.28
2023-03-12T04:40:13.116Z,97038.38
2023-03-12T04:42:39.576Z,97077.22
2023-03-12T04:45:06.633Z,97131.88
2023-03-12T04:47:33.704Z,97164.19
2023-03-12T04:50:00.330Z,97165.19
2023-03-12T04:52:27.110Z,97196.94
2023-03-12T04:54:54.109Z,97226.00
2023-03-12T04:57:20.573Z,97287.47
2023-03-12T04:59:47.132Z,97337.03
2023-03-12T05:02:13.488Z,97374.69
2023-03-12T05:04:40.039Z,97395.13
2023-03-12T05:07:06.540Z,97389.13
2023-03-12T05:09:33.066Z,97374.69
2023-03-12T05:11:59.418Z,97352.66
2023-03-12T05:14:25.915Z,97316.88
2023-03-12T05:16:52.455Z,97279.31
2023-03-12T05:19:18.804Z,97252.91
2023-03-12T05:21:45.237Z,97208.56
2023-03-12T05:24:12.048Z,97200.88
2023-03-12T05:26:38.416Z,97190.59
2023-03-12T05:29:05.037Z,97207.56
2023-03-12T05:31:34.938Z,97195.53
2023-03-12T05:34:02.531Z,97216.06
2023-03-12T05:36:28.996Z,97255.19
2023-03-12T05:38:55.426Z,97280.56
2023-03-12T05:41:26.759Z,97285.69
2023-03-12T05:43:54.235Z,97274.75
2023-03-12T05:46:20.928Z,97220.94
2023-03-12T05:48:47.518Z,97181.63
2023-03-12T05:51:13.860Z,97134.69
2023-03-12T05:53:40.408Z,97074.84
2023-03-12T05:56:08.354Z,97017.41
2023-03-12T05:58:35.257Z,97014.78
2023-03-12T06:01:02.049Z,96997.84
2023-03-12T06:03:28.539Z,96991.66
2023-03-12T06:05:56.195Z,96958.97
2023-03-12T06:08:23.541Z,96922.88
2023-03-12T06:10:54.761Z,96889.25
2023-03-12T06:13:22.376Z,96889.13
2023-03-12T06:15:49.146Z,96876.06
2023-03-12T06:18:15.738Z,96855.22
2023-03-12T06:20:42.321Z,96849.00
2023-03-12T06:23:08.899Z,96836.03
2023-03-12T06:25:35.274Z,96832.59
2023-03-12T06:28:01.632Z,96822.16
2023-03-12T06:30:28.104Z,96791.97
2023-03-12T06:32:54.620Z,96772.13
2023-03-12T06:35:21.126Z,96743.59
2023-03-12T06:37:47.721Z,96707.31
2023-03-12T06:40:14.103Z,96664.25
2023-03-12T06:42:40.447Z,96628.97
2023-03-12T06:45:07.587Z,96596.13
2023-03-12T06:47:33.940Z,96572.63
2023-03-12T06:50:00.365Z,96556.00
2023-03-12T06:52:27.175Z,96530.06
2023-03-12T06:54:53.525Z,96509.22
2023-03-12T06:57:19.946Z,96548.41
2023-03-12T06:59:48.140Z,96568.53
2023-03-12T07:02:16.417Z,96589.81
2023-03-12T07:04:42.848Z,96602.44
2023-03-12T07:07:11.477Z,96602.31
2023-03-12T07:09:37.948Z,96593.34
2023-03-12T07:12:04.452Z,96586.19
2023-03-12T07:14:31.067Z,96576.50
2023-03-12T07:16:57.904Z,96581.41
2023-03-12T07:19:24.394Z,96570.03
2023-03-12T07:21:50.804Z,96618.56
2023-03-12T07:24:17.162Z,96655.91
2023-03-12T07:26:43.707Z,96701.13
2023-03-12T07:29:10.121Z,96724.78
2023-03-12T07:31:36.508Z,96786.31
2023-03-12T07:34:03.135Z,96894.13
2023-03-12T07:36:29.907Z,96905.81
2023-03-12T07:38:56.501Z,96904.16
2023-03-12T07:41:22.904Z,96879.84
2023-03-12T07:43:49.497Z,96845.28
2023-03-12T07:46:15.980Z,96844.22
2023-03-12T07:48:44.321Z,96882.75
2023-03-12T07:51:11.039Z,96922.19
2023-03-12T07:53:37.416Z,96990.75
2023-03-12T07:56:03.997Z,97010.34
2023-03-12T07:58:30.808Z,97012.78
2023-03-12T08:00:57.325Z,97010.13
2023-03-12T08:03:23.909Z,97048.44
2023-03-12T08:06:01.606Z,97036.16
2023-03-12T08:08:28.325Z,97042.06
2023-03-12T08:10:54.793Z,97047.84
2023-03-12T08:13:22.845Z,97099.31
2023-03-12T08:15:50.940Z,97116.47
2023-03-12T08:18:18.099Z,97145.47
2023-03-12T08:20:44.685Z,97217.31
2023-03-12T08:23:11.308Z,97284.16
2023-03-12T08:25:37.786Z,97276.88
2023-03-12T08:28:04.918Z,97297.41
2023-03-12T08:30:31.343Z,97298.19
2023-03-12T08:32:58.146Z,97377.81
2023-03-12T08:35:24.770Z,97436.03
2023-03-12T08:37:51.171Z,97506.13
2023-03-12T08:40:18.638Z,97480.94
2023-03-12T08:42:45.358Z,97484.84
2023-03-12T08:45:12.243Z,97517.47
2023-03-12T08:47:41.480Z,97479.63
2023-03-12T08:50:09.386Z,97483.88
2023-03-12T08:52:35.759Z,97484.50
2023-03-12T08:55:02.129Z,97423.16
2023-03-12T08:57:29.105Z,97497.13
2023-03-12T08:59:55.491Z,97584.16
2023-03-12T09:02:21.871Z,97718.19
2023-03-12T09:04:49.274Z,97827.81
2023-03-12T09:07:18.346Z,97807.44
2023-03-12T09:09:44.990Z,97797.84
2023-03-12T09:12:11.694Z,97809.75
2023-03-12T09:17:24.377Z,97810.44
2023-03-12T09:19:50.731Z,97823.03
2023-03-12T09:22:17.402Z,97884.06
2023-03-12T09:24:43.801Z,97886.31
2023-03-12T09:27:10.241Z,97828.28
2023-03-12T09:29:41.397Z,97919.84
2023-03-12T09:32:15.695Z,98038.09
2023-03-12T09:34:42.115Z,98090.19
2023-03-12T09:37:08.470Z,98171.81
2023-03-12T09:39:35.043Z,98195.69
2023-03-12T09:42:01.388Z,98211.09
2023-03-12T09:44:39.911Z,98262.19
2023-03-12T09:47:23.338Z,98375.03
2023-03-12T09:49:52.086Z,98446.66
2023-03-12T09:52:20.919Z,98382.75
2023-03-12T09:55:15.171Z,98477.63
2023-03-12T09:57:41.739Z,98511.09
2023-03-12T10:00:12.278Z,98438.22
2023-03-12T10:03:00.686Z,98458.94
2023-03-12T10:05:36.618Z,98448.66
2023-03-12T10:08:24.207Z,98400.75
2023-03-12T10:11:02.775Z,98387.28
2023-03-12T10:13:37.786Z,98289.63
2023-03-12T10:16:12.306Z,98330.00
2023-03-12T10:18:41.892Z,98332.44
2023-03-12T10:21:13.240Z,98362.44
2023-03-12T10:24:03.204Z,98298.84
2023-03-12T10:26:33.004Z,98299.31
2023-03-12T10:29:10.778Z,98440.19
2023-03-12T10:31:43.822Z,98546.31
2023-03-12T10:34:46.659Z,98524.41
2023-03-12T10:37:21.558Z,98540.16
2023-03-12T10:39:48.347Z,98573.13
2023-03-12T10:42:20.256Z,98556.59
2023-03-12T10:44:47.670Z,98425.22
2023-03-12T10:47:39.218Z,98447.13
2023-03-12T10:50:13.034Z,98574.69
2023-03-12T10:52:39.576Z,98467.16
2023-03-12T10:55:13.604Z,98439.69
2023-03-12T10:57:41.028Z,98385.78
2023-03-12T11:00:11.818Z,98332.81
2023-03-12T11:02:41.488Z,98323.59
2023-03-12T11:05:29.536Z,98348.16
2023-03-12T11:07:55.979Z,98356.22
2023-03-12T11:10:27.434Z,98323.66
2023-03-12T11:12:59.634Z,98441.72
2023-03-12T11:15:29.061Z,98369.72
2023-03-12T11:18:19.258Z,98411.78
2023-03-12T11:20:45.922Z,98423.31
2023-03-12T11:23:30.616Z,98428.09
2023-03-12T11:26:05.478Z,98406.13
2023-03-12T11:28:40.463Z,98338.91
2023-03-12T11:31:11.109Z,98301.13
2023-03-12T11:33:37.573Z,98227.75
2023-03-12T11:36:27.293Z,98315.63
2023-03-12T11:39:09.891Z,98357.50
2023-03-12T11:41:51.648Z,98380.19
2023-03-12T11:44:21.920Z,98324.56
2023-03-12T11:47:29.048Z,98407.94
2023-03-12T11:50:30.771Z,98415.91
2023-03-12T11:53:22.053Z,98406.59
2023-03-12T11:55:58.501Z,98365.00
2023-03-12T11:58:31.402Z,98333.94
2023-03-12T12:01:16.991Z,98262.03
2023-03-12T12:04:13.996Z,98167.09
2023-03-12T12:07:19.045Z,98119.75
2023-03-12T12:10:14.903Z,98027.97
2023-03-12T12:12:45.216Z,98017.03
2023-03-12T12:15:27.830Z,97988.22
2023-03-12T12:17:57.093Z,97979.00
2023-03-12T12:20:41.941Z,97970.47
2023-03-12T12:23:30.292Z,97868.59
2023-03-12T12:25:59.251Z,97815.50
2023-03-12T12:28:28.565Z,97699.81
2023-03-12T12:31:07.275Z,97585.50
2023-03-12T12:33:40.083Z,97562.78
2023-03-12T12:36:09.596Z,97495.97
2023-03-12T12:38:39.709Z,97534.88
2023-03-12T12:41:18.275Z,97550.41
2023-03-12T12:43:49.069Z,97520.31
2023-03-12T12:46:21.291Z,97484.72
2023-03-12T12:49:08.366Z,97493.41
2023-03-12T12:51:46.244Z,97507.28
2023-03-12T12:54:27.600Z,97496.75
2023-03-12T12:56:56.269Z,97489.91
2023-03-12T12:59:27.331Z,97546.16
2023-03-12T13:01:54.893Z,97574.66
2023-03-12T13:04:28.827Z,97537.91
2023-03-12T13:07:13.550Z,97527.06
2023-03-12T13:09:45.006Z,97521.88
2023-03-12T13:12:30.470Z,97560.16
2023-03-12T13:14:57.635Z,97587.63
2023-03-12T13:17:53.663Z,97570.41
2023-03-12T13:20:21.042Z,97517.47
2023-03-12T13:23:18.000Z,97463.91
2023-03-12T13:25:59.989Z,97336.56
2023-03-12T13:28:30.346Z,97267.19
2023-03-12T13:30:57.419Z,97167.84
2023-03-12T13:33:42.032Z,97091.66
2023-03-12T13:36:23.927Z,97013.94
2023-03-12T13:39:06.098Z,96970.97
2023-03-12T13:41:42.588Z,96926.38
2023-03-12T13:44:27.313Z,96852.03
2023-03-12T13:47:04.068Z,96791.34
2023-03-12T13:49:43.814Z,96770.22
2023-03-12T13:52:16.484Z,96761.50
2023-03-12T13:54:44.643Z,96744.94
2023-03-12T13:57:32.649Z,96738.94
2023-03-12T13:59:59.030Z,96716.16
2023-03-12T14:02:33.920Z,96669.28
2023-03-12T14:05:05.783Z,96626.78
2023-03-12T14:08:10.826Z,96544.28
2023-03-12T14:11:03.098Z,96408.13
2023-03-12T14:13:36.257Z,96344.88
2023-03-12T14:16:17.901Z,96284.00
2023-03-12T14:18:44.654Z,96249.00
2023-03-12T14:21:14.579Z,96219.34
2023-03-12T14:23:46.112Z,96172.72
2023-03-12T14:26:17.278Z,96164.44
2023-03-12T14:28:43.681Z,96142.06
2023-03-12T14:31:14.978Z,96126.31
2023-03-12T14:33:50.970Z,96093.56
2023-03-12T14:36:21.234Z,96046.94
2023-03-12T14:38:48.854Z,95998.44
2023-03-12T14:41:21.313Z,95952.06
2023-03-12T14:43:51.673Z,95900.00
2023-03-12T14:46:22.575Z,95840.53
2023-03-12T14:48:50.411Z,95772.84
2023-03-12T14:51:25.214Z,95701.75
2023-03-12T14:53:52.168Z,95621.75
2023-03-12T14:56:24.973Z,95524.53
2023-03-12T14:58:51.692Z,95412.22
2023-03-12T15:01:21.108Z,95313.03
2023-03-12T15:03:50.100Z,95230.16
2023-03-12T15:06:25.711Z,95244.59
2023-03-12T15:08:52.307Z,95231.22
2023-03-12T15:11:26.832Z,95145.25
2023-03-12T15:13:56.410Z,95071.66
2023-03-12T15:16:22.808Z,94981.75
2023-03-12T15:18:50.159Z,94908.56
2023-03-12T15:21:16.653Z,94815.09
2023-03-12T15:23:44.569Z,94727.34
2023-03-12T15:26:20.519Z,94593.69
2023-03-12T15:29:03.039Z,94429.28
2023-03-12T15:31:46.680Z,94243.75
2023-03-12T15:34:14.788Z,94073.41
2023-03-12T15:36:48.751Z,93917.47
2023-03-12T15:39:26.278Z,93766.72
2023-03-12T15:41:53.281Z,93596.25
2023-03-12T15:44:27.288Z,93476.44
2023-03-12T15:47:02.226Z,93347.84
2023-03-12T15:49:30.809Z,93206.16
2023-03-12T15:51:58.798Z,93076.41
2023-03-12T15:54:27.169Z,92969.91
2023-03-12T15:56:53.772Z,92876.16
2023-03-12T15:59:25.842Z,92798.53
2023-03-12T16:01:53.584Z,92730.84
2023-03-12T16:04:20.240Z,92691.06
2023-03-12T16:06:48.877Z,92634.16
2023-03-12T16:09:19.865Z,92578.00
2023-03-12T16:11:46.302Z,92542.16
2023-03-12T16:14:22.899Z,92507.91
2023-03-12T16:16:49.408Z,92494.34
2023-03-12T16:19:17.864Z,92495.94
2023-03-12T16:21:44.364Z,92481.59
2023-03-12T16:24:10.907Z,92463.25
2023-03-12T16:26:43.083Z,92456.50
2023-03-12T16:29:10.552Z,92452.50
2023-03-12T16:31:37.077Z,92454.88
2023-03-12T16:34:03.683Z,92460.66
2023-03-12T16:36:30.024Z,92449.31
2023-03-12T16:38:56.884Z,92442.69
2023-03-12T16:41:23.480Z,92423.38
2023-03-12T16:43:50.377Z,92421.38
2023-03-12T16:46:20.962Z,92416.56
2023-03-12T16:48:52.487Z,92414.34
2023-03-12T16:51:19.029Z,92423.72
2023-03-12T16:53:49.113Z,92434.88
2023-03-12T16:56:22.107Z,92452.44
2023-03-12T16:58:49.739Z,92473.16
2023-03-12T17:01:19.016Z,92491.06
2023-03-12T17:03:49.124Z,92522.94
2023-03-12T17:06:17.852Z,92543.66
2023-03-12T17:08:44.394Z,92586.66
2023-03-12T17:11:18.001Z,92619.38
2023-03-12T17:13:45.707Z,92651.22
2023-03-12T17:16:12.805Z,92685.50
2023-03-12T17:18:40.325Z,92713.38
2023-03-12T17:21:07.083Z,92722.16
2023-03-12T17:23:33.507Z,92714.59
2023-03-12T17:26:00.157Z,92644.84
2023-03-12T17:28:26.538Z,92595.63
2023-03-12T17:30:52.946Z,92536.88
2023-03-12T17:33:19.432Z,92447.00
2023-03-12T17:35:46.053Z,92371.91
2023-03-12T17:38:12.498Z,92332.81
2023-03-12T17:40:40.564Z,92275.41
2023-03-12T17:43:06.948Z,92256.06
2023-03-12T17:45:34.003Z,92279.38
2023-03-12T17:48:00.391Z,92279.75
2023-03-12T17:50:26.766Z,92286.09
2023-03-12T17:52:53.131Z,92272.72
2023-03-12T17:55:19.762Z,92265.75
2023-03-12T17:57:46.151Z,92237.81
2023-03-12T18:00:13.222Z,92210.69
2023-03-12T18:02:40.328Z,92194.34
2023-03-12T18:05:07.929Z,92174.22
2023-03-12T18:07:34.616Z,92159.69
2023-03-12T18:10:01.052Z,92153.28
2023-03-12T18:12:27.445Z,92150.63
2023-03-12T18:14:53.898Z,92152.75
2023-03-12T18:17:20.306Z,92147.16
2023-03-12T18:19:46.701Z,92147.50
2023-03-12T18:22:14.466Z,92137.50
2023-03-12T18:24:41.708Z,92138.63
2023-03-12T18:27:08.230Z,92155.78
2023-03-12T18:29:36.720Z,92178.09
2023-03-12T18:32:03.812Z,92201.22
2023-03-12T18:34:30.171Z,92239.91
2023-03-12T18:36:56.572Z,92253.44
2023-03-12T18:39:23.067Z,92286.91
2023-03-12T18:41:49.455Z,92311.63
2023-03-12T18:44:15.844Z,92328.13
2023-03-12T18:46:42.261Z,92349.03
2023-03-12T18:49:08.901Z,92408.88
2023-03-12T18:51:35.348Z,92459.53
2023-03-12T18:54:01.977Z,92516.94
2023-03-12T18:56:28.759Z,92563.22
2023-03-12T18:58:55.318Z,92628.63
2023-03-12T19:01:21.830Z,92684.91
2023-03-12T19:03:48.258Z,92718.41
2023-03-12T19:06:15.749Z,92757.53
2023-03-12T19:08:42.534Z,92799.59
2023-03-12T19:11:13.453Z,92837.50
2023-03-12T19:13:40.117Z,92866.03
2023-03-12T19:16:10.530Z,92922.53
2023-03-12T19:18:37.559Z,92979.63
2023-03-12T19:21:04.778Z,93035.72
2023-03-12T19:23:31.141Z,93080.41
2023-03-12T19:25:57.531Z,93100.41
2023-03-12T19:28:23.982Z,93127.94
2023-03-12T19:30:50.412Z,93150.31
2023-03-12T19:33:16.809Z,93167.09
2023-03-12T19:35:43.269Z,93182.66
2023-03-12T19:38:09.657Z,93208.63
2023-03-12T19:40:36.048Z,93210.41
2023-03-12T19:43:02.606Z,93207.88
2023-03-12T19:45:29.255Z,93232.28
2023-03-12T19:47:55.761Z,93276.97
2023-03-12T19:50:22.180Z,93297.19
2023-03-12T19:52:48.553Z,93310.16
2023-03-12T19:55:15.035Z,93321.75
2023-03-12T19:57:41.420Z,93326.19
2023-03-12T20:00:12.055Z,93357.34
2023-03-12T20:02:38.887Z,93378.13
2023-03-12T20:05:06.047Z,93396.50
2023-03-12T20:07:32.626Z,93420.53
2023-03-12T20:09:58.994Z,93449.09
2023-03-12T20:12:25.452Z,93460.69
2023-03-12T20:14:51.822Z,93493.66
2023-03-12T20:17:18.210Z,93516.44
2023-03-12T20:19:44.562Z,93513.25
2023-03-12T20:22:10.919Z,93526.81
2023-03-12T20:24:37.411Z,93518.81
2023-03-12T20:27:04.536Z,93511.88
2023-03-12T20:29:30.955Z,93547.63
2023-03-12T20:31:57.488Z,93575.97
2023-03-12T20:34:23.938Z,93585.75
2023-03-12T20:36:50.395Z,93593.66
2023-03-12T20:39:16.746Z,93608.19
2023-03-12T20:41:43.097Z,93583.03
2023-03-12T20:44:09.464Z,93551.50
2023-03-12T20:46:35.805Z,93537.16
2023-03-12T20:49:02.195Z,93516.81
2023-03-12T20:51:28.551Z,93520.81
2023-03-12T20:53:54.930Z,93543.56
2023-03-12T20:56:21.301Z,93543.19
2023-03-12T20:58:47.645Z,93537.22
2023-03-12T21:01:14.155Z,93531.31
2023-03-12T21:03:40.523Z,93568.91
2023-03-12T21:06:07.015Z,93590.53
2023-03-12T21:08:34.300Z,93641.25
2023-03-12T21:11:00.702Z,93670.47
2023-03-12T21:13:27.256Z,93711.66
2023-03-12T21:15:53.625Z,93742.84
2023-03-12T21:18:20.039Z,93765.63
2023-03-12T21:20:46.598Z,93784.41
2023-03-12T21:23:13.008Z,93806.19
2023-03-12T21:25:40.369Z,93829.97
2023-03-12T21:28:07.175Z,93837.56
2023-03-12T21:30:33.606Z,93852.34
2023-03-12T21:33:01.125Z,93851.09
2023-03-12T21:35:27.672Z,93857.91
2023-03-12T21:37:56.104Z,93857.16
2023-03-12T21:40:23.270Z,93867.66
2023-03-12T21:42:49.937Z,93920.44
2023-03-12T21:45:16.457Z,93973.69
2023-03-12T21:47:42.813Z,94007.13
2023-03-12T21:50:09.887Z,94053.69
2023-03-12T21:52:43.010Z,94099.31
2023-03-12T21:55:10.061Z,94152.97
2023-03-12T21:57:36.592Z,94203.69
2023-03-12T22:00:03.953Z,94243.28
2023-03-12T22:02:31.556Z,94284.28
2023-03-12T22:05:01.003Z,94310.44
2023-03-12T22:07:29.946Z,94325.56
2023-03-12T22:09:56.404Z,94336.91
2023-03-12T22:12:22.900Z,94353.97
2023-03-12T22:14:49.305Z,94367.28
2023-03-12T22:17:15.977Z,94390.50
2023-03-12T22:19:42.323Z,94422.69
2023-03-12T22:22:09.074Z,94434.19
2023-03-12T22:24:35.502Z,94476.47
2023-03-12T22:27:03.287Z,94494.00
2023-03-12T22:29:29.705Z,94500.03
2023-03-12T22:31:56.250Z,94487.50
2023-03-12T22:34:22.622Z,94507.81
2023-03-12T22:36:49.026Z,94530.56
2023-03-12T22:39:16.808Z,94539.31
2023-03-12T22:41:43.220Z,94560.44
2023-03-12T22:44:09.640Z,94588.19
2023-03-12T22:46:36.366Z,94633.25
2023-03-12T22:49:03.458Z,94643.31
2023-03-12T22:51:30.696Z,94647.88
2023-03-12T22:53:57.318Z,94662.31
2023-03-12T22:56:23.786Z,94681.00
2023-03-12T22:58:50.473Z,94710.91
2023-03-12T23:01:19.464Z,94747.19
2023-03-12T23:03:45.990Z,94759.22
2023-03-12T23:06:14.578Z,94781.16
2023-03-12T23:08:41.013Z,94807.19
2023-03-12T23:11:07.931Z,94829.63
2023-03-12T23:13:35.911Z,94836.13
2023-03-12T23:16:04.812Z,94864.59
2023-03-12T23:18:31.511Z,94871.59
2023-03-12T23:21:01.877Z,94899.25
2023-03-12T23:23:28.685Z,94931.31
2023-03-12T23:25:55.763Z,94944.13
2023-03-12T23:28:22.215Z,94959.75
2023-03-12T23:31:01.876Z,94970.16
2023-03-12T23:33:28.491Z,94967.09
2023-03-12T23:35:59.493Z,94986.25
2023-03-12T23:38:26.468Z,94985.09
2023-03-12T23:40:52.929Z,94948.34
2023-03-12T23:43:19.570Z,94939.25
2023-03-12T23:45:46.064Z,94951.94
2023-03-12T23:48:12.682Z,94956.19
2023-03-12T23:50:39.189Z,94952.13
2023-03-12T23:53:05.566Z,94955.53
2023-03-12T23:55:31.937Z,94941.19
2023-03-12T23:57:58.272Z,94939.25
